createdAt,value
2019-03-06T00:00:28.741Z,90.71
2019-03-06T00:01:28.738Z,90.71
2019-03-06T00:02:28.758Z,90.74
2019-03-06T00:03:28.757Z,91.06
2019-03-06T00:04:28.735Z,90.6
2019-03-06T00:05:28.751Z,90.99
2019-03-06T00:06:28.728Z,90.78
2019-03-06T00:07:28.737Z,90.73
2019-03-06T00:08:28.739Z,90.89
2019-03-06T00:09:28.745Z,91.08
2019-03-06T00:10:28.788Z,91.06
2019-03-06T00:11:28.726Z,90.87
2019-03-06T00:12:28.721Z,90.96
2019-03-06T00:13:28.733Z,90.99
2019-03-06T00:14:28.733Z,90.94
2019-03-06T00:15:28.784Z,90.67
2019-03-06T00:16:28.736Z,90.69
2019-03-06T00:17:28.886Z,90.71
2019-03-06T00:18:28.946Z,90.84
2019-03-06T00:19:28.746Z,90.91
2019-03-06T00:20:28.729Z,90.73
2019-03-06T00:21:28.729Z,90.85
2019-03-06T00:22:28.749Z,90.88
2019-03-06T00:23:28.753Z,90.71
2019-03-06T00:24:28.723Z,90.78
2019-03-06T00:25:28.849Z,90.68
2019-03-06T00:26:28.711Z,90.72
2019-03-06T00:27:28.706Z,90.7
2019-03-06T00:28:28.714Z,90.58
2019-03-06T00:29:28.735Z,90.77
2019-03-06T00:30:28.711Z,90.66
2019-03-06T00:31:28.751Z,90.74
2019-03-06T00:32:28.709Z,90.58
2019-03-06T00:33:28.751Z,90.52
2019-03-06T00:34:28.760Z,90.66
2019-03-06T00:35:28.697Z,90.7
2019-03-06T00:36:28.728Z,90.53
2019-03-06T00:37:28.708Z,90.63
2019-03-06T00:38:28.701Z,90.59
2019-03-06T00:39:28.768Z,90.36
2019-03-06T00:40:28.720Z,90.51
2019-03-06T00:41:28.690Z,90.58
2019-03-06T00:42:28.698Z,90.44
2019-03-06T00:43:28.753Z,90.44
2019-03-06T00:44:28.715Z,90.33
2019-03-06T00:45:28.730Z,90.57
2019-03-06T00:46:28.722Z,90.38
2019-03-06T00:47:28.714Z,90.29
2019-03-06T00:48:28.689Z,90.37
2019-03-06T00:49:28.670Z,90.38
2019-03-06T00:50:28.689Z,90.4
2019-03-06T00:51:28.680Z,90.47
2019-03-06T00:52:28.706Z,90.46
2019-03-06T00:53:28.724Z,90.42
2019-03-06T00:54:28.668Z,90.55
2019-03-06T00:55:28.690Z,90.32
2019-03-06T00:56:28.671Z,90.28
2019-03-06T00:57:28.692Z,90.17
2019-03-06T00:58:28.676Z,90.27
2019-03-06T00:59:28.673Z,90.39
2019-03-06T01:00:28.679Z,90.26
2019-03-06T01:01:28.665Z,90.41
2019-03-06T01:02:28.670Z,90.22
2019-03-06T01:03:28.684Z,90.4
2019-03-06T01:04:28.683Z,90.37
2019-03-06T01:05:28.760Z,90.51
2019-03-06T01:06:28.682Z,90.62
2019-03-06T01:07:28.711Z,90.53
2019-03-06T01:08:28.660Z,90.77
2019-03-06T01:09:28.659Z,90.56
2019-03-06T01:10:28.673Z,90.51
2019-03-06T01:11:28.703Z,90.6
2019-03-06T01:12:28.650Z,90.5
2019-03-06T01:13:28.675Z,90.4
2019-03-06T01:14:28.666Z,90.5
2019-03-06T01:15:28.646Z,90.58
2019-03-06T01:16:28.659Z,90.37
2019-03-06T01:17:28.691Z,90.4
2019-03-06T01:18:28.643Z,90.28
2019-03-06T01:19:28.646Z,90.37
2019-03-06T01:20:28.636Z,90.26
2019-03-06T01:21:28.642Z,90.45
2019-03-06T01:22:28.632Z,90.43
2019-03-06T01:23:28.632Z,90.44
2019-03-06T01:24:29.005Z,90.36
2019-03-06T01:25:28.664Z,90.38
2019-03-06T01:26:28.720Z,90.5
2019-03-06T01:27:28.655Z,90.39
2019-03-06T01:28:28.617Z,90.23
2019-03-06T01:29:28.638Z,90.31
2019-03-06T01:30:28.674Z,90.42
2019-03-06T01:31:28.623Z,90.35
2019-03-06T01:32:28.638Z,90.38
2019-03-06T01:33:28.621Z,90.55
2019-03-06T01:34:28.657Z,90.26
2019-03-06T01:35:28.656Z,90.32
2019-03-06T01:36:28.609Z,90.46
2019-03-06T01:37:28.624Z,90.45
2019-03-06T01:38:28.602Z,90.44
2019-03-06T01:39:28.639Z,90.44
2019-03-06T01:40:28.631Z,90.41
2019-03-06T01:41:28.650Z,90.5
2019-03-06T01:42:31.311Z,90.43
2019-03-06T01:43:28.620Z,90.55
2019-03-06T01:44:28.632Z,90.33
2019-03-06T01:45:28.634Z,90.41
2019-03-06T01:46:28.711Z,90.62
2019-03-06T01:47:28.698Z,90.55
2019-03-06T01:48:28.631Z,90.3
2019-03-06T01:49:28.626Z,90.42
2019-03-06T01:50:28.611Z,90.57
2019-03-06T01:51:28.589Z,90.36
2019-03-06T01:52:28.586Z,90.6
2019-03-06T01:53:28.609Z,90.39
2019-03-06T01:54:28.584Z,90.62
2019-03-06T01:55:28.720Z,90.4
2019-03-06T01:56:28.641Z,90.25
2019-03-06T01:57:28.609Z,90.43
2019-03-06T01:58:28.712Z,90.56
2019-03-06T01:59:28.661Z,90.28
2019-03-06T02:00:28.608Z,90.29
2019-03-06T02:01:28.624Z,90.34
2019-03-06T02:02:28.615Z,90.28
2019-03-06T02:03:28.586Z,90.17
2019-03-06T02:04:28.595Z,90.08
2019-03-06T02:05:28.631Z,90.12
2019-03-06T02:06:28.610Z,90.31
2019-03-06T02:07:28.592Z,90.23
2019-03-06T02:08:28.599Z,90.29
2019-03-06T02:09:28.893Z,90.41
2019-03-06T02:10:28.577Z,90.28
2019-03-06T02:11:28.580Z,90.1
2019-03-06T02:12:28.579Z,89.96
2019-03-06T02:13:28.572Z,90.15
2019-03-06T02:14:28.579Z,90.06
2019-03-06T02:15:28.583Z,90.06
2019-03-06T02:16:28.612Z,90.1
2019-03-06T02:17:28.633Z,90.11
2019-03-06T02:18:28.543Z,90.01
2019-03-06T02:19:28.574Z,90.09
2019-03-06T02:20:28.569Z,89.99
2019-03-06T02:21:28.564Z,90.1
2019-03-06T02:22:28.561Z,90
2019-03-06T02:23:28.583Z,90.15
2019-03-06T02:24:28.538Z,90.18
2019-03-06T02:25:28.559Z,89.97
2019-03-06T02:26:28.531Z,90.05
2019-03-06T02:27:28.537Z,90.12
2019-03-06T02:28:28.531Z,90.08
2019-03-06T02:29:28.558Z,90.09
2019-03-06T02:30:28.661Z,90.34
2019-03-06T02:31:28.661Z,89.97
2019-03-06T02:32:28.567Z,90.03
2019-03-06T02:33:28.542Z,90.09
2019-03-06T02:34:28.562Z,89.87
2019-03-06T02:35:28.541Z,89.92
2019-03-06T02:36:28.513Z,89.94
2019-03-06T02:37:28.546Z,89.86
2019-03-06T02:38:28.565Z,89.84
2019-03-06T02:39:28.543Z,89.85
2019-03-06T02:40:28.624Z,89.76
2019-03-06T02:41:28.514Z,90.06
2019-03-06T02:42:28.529Z,89.97
2019-03-06T02:43:28.541Z,89.92
2019-03-06T02:44:28.548Z,89.89
2019-03-06T02:45:28.534Z,89.89
2019-03-06T02:46:28.541Z,89.94
2019-03-06T02:47:28.527Z,89.73
2019-03-06T02:48:28.581Z,89.68
2019-03-06T02:49:28.555Z,89.99
2019-03-06T02:50:28.530Z,89.95
2019-03-06T02:51:28.531Z,89.95
2019-03-06T02:52:28.567Z,89.85
2019-03-06T02:53:28.644Z,89.96
2019-03-06T02:54:28.513Z,89.98
2019-03-06T02:55:28.525Z,89.96
2019-03-06T02:56:28.553Z,89.87
2019-03-06T02:57:28.495Z,89.89
2019-03-06T02:58:28.547Z,89.89
2019-03-06T02:59:28.531Z,89.92
2019-03-06T03:00:28.531Z,89.92
2019-03-06T03:01:28.488Z,89.95
2019-03-06T03:02:28.504Z,89.9
2019-03-06T03:03:28.505Z,89.91
2019-03-06T03:04:28.499Z,89.87
2019-03-06T03:05:28.523Z,89.9
2019-03-06T03:06:28.502Z,89.86
2019-03-06T03:07:28.498Z,89.79
2019-03-06T03:08:28.497Z,89.81
2019-03-06T03:09:28.550Z,89.69
2019-03-06T03:10:28.533Z,89.86
2019-03-06T03:11:28.526Z,89.98
2019-03-06T03:12:28.493Z,90
2019-03-06T03:13:28.489Z,90.13
2019-03-06T03:14:28.811Z,90.13
2019-03-06T03:15:28.504Z,90.01
2019-03-06T03:16:28.501Z,90.08
2019-03-06T03:17:28.492Z,90.1
2019-03-06T03:18:28.557Z,90.3
2019-03-06T03:19:28.497Z,90.55
2019-03-06T03:20:28.486Z,90.39
2019-03-06T03:21:28.494Z,90.49
2019-03-06T03:22:28.468Z,90.45
2019-03-06T03:23:28.494Z,90.41
2019-03-06T03:24:28.488Z,90.32
2019-03-06T03:25:28.515Z,90.47
2019-03-06T03:26:28.464Z,90.35
2019-03-06T03:27:28.470Z,90.32
2019-03-06T03:28:28.457Z,90.33
2019-03-06T03:29:28.464Z,90.21
2019-03-06T03:30:28.549Z,90.04
2019-03-06T03:31:28.486Z,90.3
2019-03-06T03:32:28.451Z,90.22
2019-03-06T03:33:28.506Z,90.03
2019-03-06T03:34:28.433Z,90.13
2019-03-06T03:35:28.504Z,90.26
2019-03-06T03:36:28.443Z,89.98
2019-03-06T03:37:28.481Z,89.95
2019-03-06T03:38:28.476Z,89.92
2019-03-06T03:39:28.469Z,89.99
2019-03-06T03:40:28.479Z,90.15
2019-03-06T03:41:28.449Z,90.05
2019-03-06T03:42:28.460Z,90
2019-03-06T03:43:28.463Z,89.84
2019-03-06T03:44:28.442Z,90.04
2019-03-06T03:45:28.474Z,90.07
2019-03-06T03:46:28.444Z,90.16
2019-03-06T03:47:28.447Z,90.1
2019-03-06T03:48:28.461Z,90.09
2019-03-06T03:49:28.477Z,90.29
2019-03-06T03:50:28.435Z,90.05
2019-03-06T03:51:28.449Z,89.94
2019-03-06T03:52:28.430Z,89.91
2019-03-06T03:53:28.464Z,90.01
2019-03-06T03:54:28.425Z,89.97
2019-03-06T03:55:28.441Z,89.92
2019-03-06T03:56:28.452Z,89.93
2019-03-06T03:57:28.421Z,89.95
2019-03-06T03:58:28.420Z,89.91
2019-03-06T03:59:28.423Z,89.97
2019-03-06T04:00:28.425Z,89.93
2019-03-06T04:01:28.416Z,89.78
2019-03-06T04:02:28.420Z,89.73
2019-03-06T04:03:28.438Z,89.75
2019-03-06T04:04:28.431Z,89.79
2019-03-06T04:05:28.413Z,89.78
2019-03-06T04:06:28.427Z,89.72
2019-03-06T04:07:28.409Z,89.66
2019-03-06T04:08:28.398Z,89.77
2019-03-06T04:09:28.393Z,89.62
2019-03-06T04:10:28.440Z,89.59
2019-03-06T04:11:28.441Z,89.84
2019-03-06T04:12:28.443Z,89.86
2019-03-06T04:13:28.454Z,89.83
2019-03-06T04:14:28.398Z,89.72
2019-03-06T04:15:28.410Z,89.71
2019-03-06T04:16:28.423Z,89.75
2019-03-06T04:17:28.385Z,89.6
2019-03-06T04:18:28.405Z,89.61
2019-03-06T04:19:28.429Z,89.6
2019-03-06T04:20:28.410Z,89.63
2019-03-06T04:21:28.400Z,89.64
2019-03-06T04:22:28.394Z,89.52
2019-03-06T04:23:28.403Z,89.61
2019-03-06T04:24:28.397Z,89.54
2019-03-06T04:25:28.388Z,89.69
2019-03-06T04:26:28.389Z,89.76
2019-03-06T04:27:28.375Z,89.63
2019-03-06T04:28:28.372Z,89.69
2019-03-06T04:29:28.380Z,89.57
2019-03-06T04:30:28.381Z,89.47
2019-03-06T04:31:28.380Z,89.61
2019-03-06T04:32:28.366Z,89.75
2019-03-06T04:33:28.362Z,89.91
2019-03-06T04:34:28.376Z,89.77
2019-03-06T04:35:28.374Z,89.7
2019-03-06T04:36:28.364Z,89.65
2019-03-06T04:37:28.370Z,89.64
2019-03-06T04:38:28.352Z,89.74
2019-03-06T04:39:28.348Z,89.74
2019-03-06T04:40:28.339Z,89.85
2019-03-06T04:41:28.389Z,89.99
2019-03-06T04:42:28.352Z,89.83
2019-03-06T04:43:28.376Z,89.81
2019-03-06T04:44:28.392Z,89.96
2019-03-06T04:45:28.358Z,89.7
2019-03-06T04:46:28.383Z,89.58
2019-03-06T04:47:28.372Z,89.69
2019-03-06T04:48:28.363Z,89.63
2019-03-06T04:49:28.356Z,89.51
2019-03-06T04:50:28.371Z,89.57
2019-03-06T04:51:28.342Z,89.55
2019-03-06T04:52:28.335Z,89.64
2019-03-06T04:53:28.347Z,89.55
2019-03-06T04:54:28.333Z,89.45
2019-03-06T04:55:28.351Z,89.38
2019-03-06T04:56:28.343Z,89.39
2019-03-06T04:57:28.341Z,89.37
2019-03-06T04:58:28.366Z,89.31
2019-03-06T04:59:28.343Z,89.22
2019-03-06T05:00:28.323Z,89.49
2019-03-06T05:01:28.338Z,89.39
2019-03-06T05:02:28.323Z,89.23
2019-03-06T05:03:28.326Z,89.23
2019-03-06T05:04:28.355Z,89.3
2019-03-06T05:05:28.310Z,89.41
2019-03-06T05:06:29.272Z,89.51
2019-03-06T05:07:28.332Z,89.22
2019-03-06T05:08:28.325Z,89.31
2019-03-06T05:09:28.314Z,89.36
2019-03-06T05:10:28.308Z,89.37
2019-03-06T05:11:28.316Z,89.24
2019-03-06T05:12:28.314Z,89.36
2019-03-06T05:13:28.306Z,89.29
2019-03-06T05:14:28.340Z,89.26
2019-03-06T05:15:28.303Z,89.29
2019-03-06T05:16:28.292Z,89.21
2019-03-06T05:17:28.326Z,89.24
2019-03-06T05:18:28.309Z,89.32
2019-03-06T05:19:28.330Z,89.31
2019-03-06T05:20:28.337Z,89.32
2019-03-06T05:21:28.329Z,89.15
2019-03-06T05:22:28.310Z,89.1
2019-03-06T05:23:28.296Z,89.21
2019-03-06T05:24:28.294Z,89.19
2019-03-06T05:25:28.321Z,89
2019-03-06T05:26:28.294Z,89.01
2019-03-06T05:27:28.284Z,89.11
2019-03-06T05:28:28.298Z,89.12
2019-03-06T05:29:28.273Z,89.06
2019-03-06T05:30:28.281Z,88.86
2019-03-06T05:31:28.312Z,88.84
2019-03-06T05:32:28.280Z,88.78
2019-03-06T05:33:28.770Z,88.61
2019-03-06T05:34:28.361Z,88.54
2019-03-06T05:35:28.604Z,88.78
2019-03-06T05:36:28.303Z,88.75
2019-03-06T05:37:28.278Z,88.49
2019-03-06T05:38:28.270Z,88.53
2019-03-06T05:39:28.290Z,88.5
2019-03-06T05:40:28.350Z,88.27
2019-03-06T05:41:28.281Z,88.35
2019-03-06T05:42:28.289Z,88.43
2019-03-06T05:43:28.271Z,88.36
2019-03-06T05:44:28.289Z,88.48
2019-03-06T05:45:28.260Z,88.5
2019-03-06T05:46:28.270Z,88.17
2019-03-06T05:47:28.260Z,88.22
2019-03-06T05:48:28.259Z,88.22
2019-03-06T05:49:28.278Z,88.63
2019-03-06T05:50:28.248Z,87.66
2019-03-06T05:51:28.239Z,87.67
2019-03-06T05:52:28.276Z,87.55
2019-03-06T05:53:28.269Z,87.21
2019-03-06T05:54:28.262Z,87.32
2019-03-06T05:55:28.257Z,87.36
2019-03-06T05:56:28.267Z,87.4
2019-03-06T05:57:28.237Z,87.32
2019-03-06T05:58:28.248Z,87.12
2019-03-06T05:59:28.244Z,86.92
2019-03-06T06:00:28.227Z,87
2019-03-06T06:01:28.317Z,86.91
2019-03-06T06:02:28.270Z,87.04
2019-03-06T06:03:28.237Z,87.11
2019-03-06T06:04:28.279Z,87.07
2019-03-06T06:05:28.510Z,86.89
2019-03-06T06:06:28.269Z,87.15
2019-03-06T06:07:28.246Z,87.23
2019-03-06T06:08:28.299Z,87
2019-03-06T06:09:28.243Z,87.04
2019-03-06T06:10:28.242Z,87.17
2019-03-06T06:11:28.248Z,86.89
2019-03-06T06:12:28.226Z,87.09
2019-03-06T06:13:28.263Z,87
2019-03-06T06:14:28.213Z,87.07
2019-03-06T06:15:28.222Z,86.99
2019-03-06T06:16:28.234Z,87.04
2019-03-06T06:17:28.233Z,86.95
2019-03-06T06:18:28.219Z,86.91
2019-03-06T06:19:28.230Z,86.87
2019-03-06T06:20:28.245Z,86.69
2019-03-06T06:21:28.252Z,86.8
2019-03-06T06:22:28.234Z,86.88
2019-03-06T06:23:28.210Z,86.66
2019-03-06T06:24:28.225Z,86.76
2019-03-06T06:25:28.223Z,86.87
2019-03-06T06:26:28.560Z,86.79
2019-03-06T06:27:28.223Z,86.82
2019-03-06T06:28:28.222Z,86.75
2019-03-06T06:29:28.224Z,86.77
2019-03-06T06:30:28.236Z,86.65
2019-03-06T06:31:28.217Z,86.65
2019-03-06T06:32:28.217Z,86.5
2019-03-06T06:33:28.229Z,86.41
2019-03-06T06:34:28.236Z,86.33
2019-03-06T06:35:28.217Z,86.35
2019-03-06T06:36:28.202Z,86.47
2019-03-06T06:37:28.202Z,86.44
2019-03-06T06:38:28.197Z,86.35
2019-03-06T06:39:28.193Z,86.33
2019-03-06T06:40:28.183Z,86.28
2019-03-06T06:41:28.193Z,86.26
2019-03-06T06:42:28.216Z,86.22
2019-03-06T06:43:28.179Z,85.87
2019-03-06T06:44:28.191Z,85.89
2019-03-06T06:45:28.185Z,85.95
2019-03-06T06:46:28.183Z,85.96
2019-03-06T06:47:28.199Z,85.48
2019-03-06T06:48:28.340Z,85.66
2019-03-06T06:49:28.223Z,85.67
2019-03-06T06:50:28.192Z,85.86
2019-03-06T06:51:28.179Z,85.89
2019-03-06T06:52:28.157Z,85.91
2019-03-06T06:53:28.166Z,85.89
2019-03-06T06:54:28.164Z,85.28
2019-03-06T06:55:28.179Z,85.4
2019-03-06T06:56:28.310Z,85.2
2019-03-06T06:57:28.156Z,85.05
2019-03-06T06:58:31.237Z,85.22
2019-03-06T06:59:28.370Z,85.3
2019-03-06T07:00:28.152Z,85.02
2019-03-06T07:01:28.217Z,84.44
2019-03-06T07:02:28.157Z,84.64
2019-03-06T07:03:28.158Z,84.14
2019-03-06T07:04:28.207Z,83.97
2019-03-06T07:05:28.151Z,84.29
2019-03-06T07:06:28.150Z,84.48
2019-03-06T07:07:28.186Z,84.51
2019-03-06T07:08:28.148Z,84.49
2019-03-06T07:09:28.140Z,83.91
2019-03-06T07:10:28.502Z,83.82
2019-03-06T07:11:28.144Z,83.9
2019-03-06T07:12:28.159Z,83.61
2019-03-06T07:13:28.137Z,83.47
2019-03-06T07:14:28.125Z,83.4
2019-03-06T07:15:28.138Z,83.85
2019-03-06T07:16:28.129Z,83.91
2019-03-06T07:17:28.138Z,84.18
2019-03-06T07:18:28.128Z,83.99
2019-03-06T07:19:28.118Z,83.51
2019-03-06T07:20:28.133Z,83.51
2019-03-06T07:21:28.182Z,83.46
2019-03-06T07:22:28.152Z,83.72
2019-03-06T07:23:28.120Z,83.39
2019-03-06T07:24:28.129Z,82.65
2019-03-06T07:25:28.127Z,82.69
2019-03-06T07:26:28.131Z,82.49
2019-03-06T07:27:28.133Z,82.33
2019-03-06T07:28:28.140Z,82.34
2019-03-06T07:29:28.140Z,82.57
2019-03-06T07:30:28.122Z,82.17
2019-03-06T07:31:28.133Z,82.28
2019-03-06T07:32:28.474Z,82.47
2019-03-06T07:33:28.108Z,82.42
2019-03-06T07:34:28.111Z,82.17
2019-03-06T07:35:28.116Z,82.19
2019-03-06T07:36:28.093Z,82.5
2019-03-06T07:37:28.944Z,82.4
2019-03-06T07:38:28.089Z,82.3
2019-03-06T07:39:28.107Z,81.62
2019-03-06T07:40:28.100Z,81.91
2019-03-06T07:41:28.101Z,82.25
2019-03-06T07:42:28.117Z,82.29
2019-03-06T07:43:28.086Z,82.24
2019-03-06T07:45:28.082Z,82.14
2019-03-06T07:46:28.086Z,81.88
2019-03-06T07:47:28.091Z,82.46
2019-03-06T07:48:28.082Z,81.94
2019-03-06T07:49:28.095Z,81.59
2019-03-06T07:50:28.085Z,81.92
2019-03-06T07:51:28.074Z,81.81
2019-03-06T07:52:28.080Z,81.63
2019-03-06T07:53:28.070Z,81.04
2019-03-06T07:54:28.266Z,81.2
2019-03-06T07:55:28.070Z,80.89
2019-03-06T07:56:28.081Z,81.15
2019-03-06T07:57:28.072Z,81.2
2019-03-06T07:58:28.062Z,81.13
2019-03-06T07:59:28.076Z,81.45
2019-03-06T08:00:28.065Z,81.25
2019-03-06T08:01:28.061Z,81.36
2019-03-06T08:02:28.066Z,81.62
2019-03-06T08:03:28.070Z,81.39
2019-03-06T08:04:28.069Z,81.21
2019-03-06T08:05:28.057Z,81.5
2019-03-06T08:06:28.069Z,81.51
2019-03-06T08:07:28.064Z,81.69
2019-03-06T08:08:28.041Z,81.52
2019-03-06T08:09:28.061Z,81.22
2019-03-06T08:10:28.062Z,81.24
2019-03-06T08:11:28.064Z,80.76
2019-03-06T08:12:28.048Z,81.15
2019-03-06T08:13:28.042Z,80.83
2019-03-06T08:14:28.039Z,81.19
2019-03-06T08:15:28.054Z,81.05
2019-03-06T08:16:28.225Z,80.91
2019-03-06T08:17:28.080Z,80.96
2019-03-06T08:18:28.042Z,80.71
2019-03-06T08:19:28.060Z,80.52
2019-03-06T08:20:28.036Z,80.09
2019-03-06T08:21:28.035Z,79.83
2019-03-06T08:22:28.043Z,80.43
2019-03-06T08:23:28.053Z,80.09
2019-03-06T08:24:28.039Z,80.58
2019-03-06T08:25:28.031Z,80.77
2019-03-06T08:26:28.042Z,80.53
2019-03-06T08:27:28.029Z,79.82
2019-03-06T08:28:28.033Z,80.52
2019-03-06T08:29:28.049Z,80.34
2019-03-06T08:30:28.036Z,80.24
2019-03-06T08:31:28.026Z,79.73
2019-03-06T08:32:28.054Z,79.89
2019-03-06T08:33:28.019Z,79.48
2019-03-06T08:34:28.024Z,79.76
2019-03-06T08:35:28.036Z,79.69
2019-03-06T08:36:28.024Z,78.98
2019-03-06T08:37:28.022Z,78.45
2019-03-06T08:38:29.015Z,78.46
2019-03-06T08:39:28.043Z,77.85
2019-03-06T08:40:28.017Z,78.33
2019-03-06T08:41:28.010Z,78.2
2019-03-06T08:42:28.050Z,77
2019-03-06T08:43:28.007Z,76.29
2019-03-06T08:44:28.058Z,76.49
2019-03-06T08:45:28.128Z,76.76
2019-03-06T08:46:28.025Z,76.46
2019-03-06T08:47:28.003Z,76.55
2019-03-06T08:48:27.993Z,76.16
2019-03-06T08:49:28.007Z,75.41
2019-03-06T08:50:28.053Z,75.46
2019-03-06T08:51:28.005Z,75.09
2019-03-06T08:52:27.999Z,74.9
2019-03-06T08:53:27.997Z,74.96
2019-03-06T08:54:27.998Z,75.11
2019-03-06T08:55:29.434Z,75.23
2019-03-06T08:56:27.994Z,75.37
2019-03-06T08:57:28.006Z,75.42
2019-03-06T08:58:27.984Z,75.14
2019-03-06T08:59:28.542Z,74.65
2019-03-06T09:00:28.169Z,74.93
2019-03-06T09:01:28.064Z,74.34
2019-03-06T09:02:27.977Z,74.13
2019-03-06T09:03:28.010Z,74.51
2019-03-06T09:04:27.967Z,74.17
2019-03-06T09:05:27.984Z,74.23
2019-03-06T09:06:28.029Z,73.88
2019-03-06T09:07:27.990Z,74.15
2019-03-06T09:08:27.966Z,74.1
2019-03-06T09:09:27.956Z,73.47
2019-03-06T09:10:27.977Z,73.57
2019-03-06T09:11:27.997Z,73.91
2019-03-06T09:12:27.972Z,74.1
2019-03-06T09:13:27.974Z,74.06
2019-03-06T09:14:27.951Z,73.54
2019-03-06T09:15:27.973Z,74.13
2019-03-06T09:16:27.950Z,74.43
2019-03-06T09:17:27.966Z,73.9
2019-03-06T09:18:27.962Z,73.77
2019-03-06T09:19:27.969Z,73.63
2019-03-06T09:20:35.381Z,73.65
2019-03-06T09:21:27.955Z,73.79
2019-03-06T09:22:28.118Z,74.1
2019-03-06T09:23:27.968Z,74.35
2019-03-06T09:24:27.972Z,73.75
2019-03-06T09:25:27.961Z,73.96
2019-03-06T09:26:27.943Z,73.93
2019-03-06T09:27:27.956Z,73.69
2019-03-06T09:28:27.972Z,73.73
2019-03-06T09:29:27.957Z,73.47
2019-03-06T09:30:27.933Z,73.93
2019-03-06T09:31:27.948Z,73.56
2019-03-06T09:32:27.965Z,73.29
2019-03-06T09:33:27.951Z,74.13
2019-03-06T09:34:28.308Z,73.53
2019-03-06T09:35:27.936Z,73.24
2019-03-06T09:36:27.925Z,73.05
2019-03-06T09:37:27.922Z,72.15
2019-03-06T09:38:27.957Z,73.34
2019-03-06T09:39:27.920Z,73.15
2019-03-06T09:40:27.927Z,72.7
2019-03-06T09:41:27.926Z,73.24
2019-03-06T09:42:27.926Z,73.35
2019-03-06T09:43:27.936Z,73.02
2019-03-06T09:44:28.071Z,73.04
2019-03-06T09:45:27.940Z,72.9
2019-03-06T09:46:27.921Z,72.21
2019-03-06T09:47:27.908Z,72.58
2019-03-06T09:48:27.916Z,72.22
2019-03-06T09:49:27.932Z,72.36
2019-03-06T09:50:27.904Z,72.29
2019-03-06T09:51:27.921Z,72.56
2019-03-06T09:52:27.946Z,72.57
2019-03-06T09:53:27.921Z,71.87
2019-03-06T09:54:27.914Z,70.33
2019-03-06T09:55:27.924Z,68.77
2019-03-06T09:56:27.897Z,66.97
2019-03-06T09:57:27.917Z,66.65
2019-03-06T09:58:27.987Z,67.1
2019-03-06T09:59:27.902Z,66.05
2019-03-06T10:00:27.893Z,63.82
2019-03-06T10:01:27.918Z,62.88
2019-03-06T10:02:27.939Z,63.91
2019-03-06T10:03:27.928Z,64.74
2019-03-06T10:04:27.908Z,63.93
2019-03-06T10:05:27.887Z,63.8
2019-03-06T10:06:28.181Z,64.55
2019-03-06T10:07:27.904Z,64.24
2019-03-06T10:08:27.910Z,64.53
2019-03-06T10:09:27.893Z,63.97
2019-03-06T10:10:27.889Z,62.68
2019-03-06T10:11:27.884Z,62.85
2019-03-06T10:12:27.878Z,62.9
2019-03-06T10:13:28.163Z,63.01
2019-03-06T10:14:27.957Z,63.55
2019-03-06T10:15:27.871Z,63.08
2019-03-06T10:16:27.888Z,63.16
2019-03-06T10:17:27.886Z,62.92
2019-03-06T10:18:27.917Z,62.31
2019-03-06T10:19:29.526Z,61.19
2019-03-06T10:20:27.871Z,61.24
2019-03-06T10:21:27.892Z,61.9
2019-03-06T10:22:27.872Z,62.28
2019-03-06T10:23:27.878Z,63.19
2019-03-06T10:24:27.893Z,62.74
2019-03-06T10:25:30.206Z,62.46
2019-03-06T10:26:28.883Z,62.65
2019-03-06T10:27:27.869Z,61.09
2019-03-06T10:28:28.150Z,61.94
2019-03-06T10:29:27.871Z,62.65
2019-03-06T10:30:27.855Z,62.98
2019-03-06T10:31:27.856Z,60.92
2019-03-06T10:32:27.856Z,61.09
2019-03-06T10:33:27.870Z,61.25
2019-03-06T10:34:27.856Z,61.83
2019-03-06T10:35:27.839Z,61.86
2019-03-06T10:36:27.997Z,61.99
2019-03-06T10:37:27.906Z,62.28
2019-03-06T10:38:27.870Z,59.96
2019-03-06T10:39:27.834Z,59.98
2019-03-06T10:40:27.843Z,60.81
2019-03-06T10:41:27.852Z,60.39
2019-03-06T10:42:27.859Z,60.06
2019-03-06T10:43:27.840Z,59.64
2019-03-06T10:44:29.819Z,58.46
2019-03-06T10:45:27.844Z,59.26
2019-03-06T10:46:27.833Z,59.83
2019-03-06T10:47:27.840Z,58.64
2019-03-06T10:48:27.827Z,59.2
2019-03-06T10:49:27.921Z,58.96
2019-03-06T10:50:28.261Z,59.38
2019-03-06T10:51:27.907Z,59.32
2019-03-06T10:52:27.925Z,58.78
2019-03-06T10:53:27.861Z,57.96
2019-03-06T10:54:27.812Z,57.41
2019-03-06T10:55:27.806Z,57.08
2019-03-06T10:56:27.825Z,55.36
2019-03-06T10:57:27.825Z,57.5
2019-03-06T10:58:27.824Z,56.3
2019-03-06T10:59:27.818Z,55.94
2019-03-06T11:00:28.804Z,54.23
2019-03-06T11:01:27.886Z,54.53
2019-03-06T11:02:27.816Z,54.94
2019-03-06T11:03:27.808Z,55.11
2019-03-06T11:04:27.851Z,54.5
2019-03-06T11:05:27.817Z,54.39
2019-03-06T11:06:27.821Z,53.97
2019-03-06T11:07:27.825Z,53.56
2019-03-06T11:08:27.824Z,53.68
2019-03-06T11:09:27.832Z,52.54
2019-03-06T11:10:27.824Z,52.45
2019-03-06T11:11:27.878Z,52.18
2019-03-06T11:12:27.804Z,52.74
2019-03-06T11:13:27.907Z,52.12
2019-03-06T11:14:27.820Z,51.88
2019-03-06T11:15:27.807Z,51.54
2019-03-06T11:16:27.796Z,52.33
2019-03-06T11:17:27.801Z,52.44
2019-03-06T11:18:27.891Z,51.92
2019-03-06T11:19:27.823Z,53.56
2019-03-06T11:20:27.803Z,52.5
2019-03-06T11:21:27.812Z,51.51
2019-03-06T11:22:27.818Z,52.48
2019-03-06T11:23:27.804Z,52.88
2019-03-06T11:24:27.838Z,53.39
2019-03-06T11:25:27.783Z,52.03
2019-03-06T11:26:27.802Z,52.68
2019-03-06T11:27:28.006Z,53.48
2019-03-06T11:28:27.787Z,52.7
2019-03-06T11:29:27.780Z,51.18
2019-03-06T11:30:27.780Z,52.13
2019-03-06T11:31:27.841Z,52.01
2019-03-06T11:32:28.064Z,52.21
2019-03-06T11:33:27.884Z,51.3
2019-03-06T11:34:27.783Z,50.46
2019-03-06T11:35:27.767Z,50.58
2019-03-06T11:36:27.773Z,52.23
2019-03-06T11:37:27.792Z,52.13
2019-03-06T11:38:27.755Z,51.51
2019-03-06T11:39:27.819Z,51.29
2019-03-06T11:40:27.801Z,52.57
2019-03-06T11:41:27.767Z,51.89
2019-03-06T11:42:27.770Z,51.92
2019-03-06T11:43:27.790Z,51.44
2019-03-06T11:44:27.801Z,50.47
2019-03-06T11:45:27.783Z,51.82
2019-03-06T11:46:27.764Z,50.42
2019-03-06T11:47:27.765Z,50.74
2019-03-06T11:48:27.757Z,51.91
2019-03-06T11:49:27.751Z,49.19
2019-03-06T11:50:27.762Z,49.45
2019-03-06T11:51:27.822Z,48.99
2019-03-06T11:52:27.753Z,49.22
2019-03-06T11:53:27.746Z,49.07
2019-03-06T11:54:27.913Z,50.9
2019-03-06T11:55:27.742Z,48.87
2019-03-06T11:56:27.734Z,49.39
2019-03-06T11:57:27.740Z,48.73
2019-03-06T11:58:27.726Z,49.04
2019-03-06T11:59:27.748Z,50.34
2019-03-06T12:00:27.738Z,50.33
2019-03-06T12:01:27.726Z,48.41
2019-03-06T12:02:27.736Z,48.9
2019-03-06T12:03:27.753Z,49.48
2019-03-06T12:04:27.730Z,48.8
2019-03-06T12:05:27.735Z,50.89
2019-03-06T12:06:27.721Z,51.16
2019-03-06T12:07:27.759Z,49.63
2019-03-06T12:08:27.726Z,49.7
2019-03-06T12:09:27.745Z,50.47
2019-03-06T12:10:27.730Z,49.42
2019-03-06T12:11:27.737Z,49.48
2019-03-06T12:12:27.775Z,49.69
2019-03-06T12:13:27.749Z,49.64
2019-03-06T12:14:27.722Z,49.76
2019-03-06T12:15:27.858Z,50.44
2019-03-06T12:16:28.622Z,50.64
2019-03-06T12:17:27.728Z,50.22
2019-03-06T12:18:27.789Z,50.11
2019-03-06T12:19:27.761Z,50.27
2019-03-06T12:20:27.727Z,50.49
2019-03-06T12:21:27.733Z,50.58
2019-03-06T12:22:27.724Z,49.57
2019-03-06T12:23:27.700Z,50.24
2019-03-06T12:24:27.707Z,50.65
2019-03-06T12:25:27.717Z,51.13
2019-03-06T12:26:27.734Z,50.58
2019-03-06T12:27:28.418Z,51.11
2019-03-06T12:28:27.710Z,50.58
2019-03-06T12:29:27.926Z,50.94
2019-03-06T12:30:27.720Z,50.02
2019-03-06T12:31:27.712Z,48.58
2019-03-06T12:32:27.719Z,49.3
2019-03-06T12:33:27.707Z,49.69
2019-03-06T12:34:27.761Z,48.81
2019-03-06T12:35:27.711Z,49.03
2019-03-06T12:36:27.703Z,48.97
2019-03-06T12:37:27.959Z,48.01
2019-03-06T12:38:28.066Z,49.58
2019-03-06T12:39:27.726Z,48.07
2019-03-06T12:40:27.689Z,49.24
2019-03-06T12:41:27.698Z,49.2
2019-03-06T12:42:27.705Z,48.17
2019-03-06T12:43:27.688Z,47.9
2019-03-06T12:44:27.693Z,48.07
2019-03-06T12:45:27.691Z,47.64
2019-03-06T12:46:27.693Z,48.06
2019-03-06T12:47:27.690Z,48.83
2019-03-06T12:48:27.682Z,48.42
2019-03-06T12:49:27.700Z,48.37
2019-03-06T12:50:27.690Z,48.77
2019-03-06T12:51:27.698Z,49.05
2019-03-06T12:52:27.684Z,48.88
2019-03-06T12:53:27.663Z,48.82
2019-03-06T12:54:27.678Z,48.46
2019-03-06T12:55:27.677Z,48.7
2019-03-06T12:56:27.690Z,48.7